Time;durP1;ratioP1;P1;durP2;ratioP2;P2;SDS_P1;SDS_P2;PMS_P1;PMS_P2;Temp;Humidity;BMP_temperature;BMP_pressure;BME280_temperature;BME280_humidity;BME280_pressure;Samples;Min_cycle;Max_cycle;Signal;HPM_P1;HPM_P2
2023/01/03 00:01:24;;;;;;;21.42;12.75;;;4.10;99.90;;;;;;4991908;28;20053;-68
2023/01/03 00:03:53;;;;;;;19.48;12.57;;;4.20;99.90;;;;;;4993704;28;20120;-68
2023/01/03 00:06:21;;;;;;;24.02;14.00;;;4.30;99.90;;;;;;4998119;28;20605;-68
2023/01/03 00:08:48;;;;;;;26.58;15.57;;;4.40;99.90;;;;;;4999068;28;20031;-68
2023/01/03 00:11:19;;;;;;;22.70;14.30;;;4.40;99.90;;;;;;4997543;28;20022;-71
2023/01/03 00:13:45;;;;;;;26.15;14.88;;;4.40;99.90;;;;;;5001936;28;20041;-68
2023/01/03 00:16:18;;;;;;;25.20;14.93;;;4.40;99.90;;;;;;4998925;28;20054;-67
2023/01/03 00:18:45;;;;;;;31.23;16.20;;;4.40;99.90;;;;;;4996591;28;20030;-68
2023/01/03 00:21:11;;;;;;;28.83;16.45;;;4.40;99.90;;;;;;4992538;28;20030;-68
2023/01/03 00:23:37;;;;;;;32.38;16.13;;;4.40;99.90;;;;;;5000109;28;20498;-67
2023/01/03 00:26:14;;;;;;;28.73;15.65;;;4.40;99.90;;;;;;4996319;28;20033;-67
2023/01/03 00:28:41;;;;;;;22.20;14.18;;;4.50;99.90;;;;;;4997217;28;20506;-66
2023/01/03 00:31:08;;;;;;;22.42;14.30;;;4.50;99.90;;;;;;4991355;28;20026;-67
2023/01/03 00:33:39;;;;;;;25.40;15.25;;;4.50;99.90;;;;;;5000037;28;20021;-67
2023/01/03 00:36:07;;;;;;;30.15;15.48;;;4.50;99.90;;;;;;5006650;28;20068;-67
2023/01/03 00:38:34;;;;;;;25.33;14.05;;;4.50;99.90;;;;;;4998232;28;20041;-67
2023/01/03 00:41:07;;;;;;;25.85;14.25;;;4.50;99.90;;;;;;4993882;28;20034;-67
2023/01/03 00:43:34;;;;;;;27.00;15.05;;;4.50;99.90;;;;;;4990346;28;20034;-67
2023/01/03 00:46:00;;;;;;;24.23;14.40;;;4.60;99.90;;;;;;5005283;28;20113;-67
2023/01/03 00:48:27;;;;;;;21.17;13.85;;;4.60;99.90;;;;;;4990546;28;20406;-67
2023/01/03 00:50:53;;;;;;;25.25;13.98;;;4.70;99.90;;;;;;4998696;28;20026;-66
2023/01/03 00:53:20;;;;;;;23.95;13.57;;;4.80;99.90;;;;;;4994126;28;20433;-67
2023/01/03 00:55:46;;;;;;;24.90;14.00;;;4.80;99.90;;;;;;5000852;28;20018;-66
2023/01/03 00:58:12;;;;;;;20.42;12.95;;;4.90;99.90;;;;;;4994209;28;20429;-67
2023/01/03 01:00:38;;;;;;;25.10;14.55;;;4.90;99.90;;;;;;4991092;28;20035;-67
2023/01/03 01:03:04;;;;;;;19.95;12.55;;;4.90;99.90;;;;;;5000588;28;20037;-67
2023/01/03 01:05:30;;;;;;;25.42;13.93;;;4.90;99.90;;;;;;4990574;28;20026;-67
2023/01/03 01:07:56;;;;;;;23.60;14.77;;;5.00;99.90;;;;;;5004010;28;20034;-68
2023/01/03 01:10:23;;;;;;;25.63;16.08;;;5.00;99.90;;;;;;4989316;28;20034;-67
2023/01/03 01:12:49;;;;;;;29.23;15.80;;;5.00;99.90;;;;;;4995768;28;20037;-67
2023/01/03 01:15:15;;;;;;;20.67;13.63;;;4.90;99.90;;;;;;5000936;28;20485;-66
2023/01/03 01:17:41;;;;;;;20.35;14.20;;;4.90;99.90;;;;;;4996421;28;20104;-66
2023/01/03 01:20:07;;;;;;;26.42;14.77;;;5.00;99.90;;;;;;4999799;28;20419;-66
2023/01/03 01:22:34;;;;;;;23.75;15.00;;;5.00;99.90;;;;;;4993037;28;20462;-66
2023/01/03 01:25:00;;;;;;;24.10;15.23;;;5.00;99.90;;;;;;4992775;28;20112;-66
2023/01/03 01:27:26;;;;;;;24.13;15.73;;;5.00;99.90;;;;;;4996030;28;20030;-66
2023/01/03 01:29:52;;;;;;;22.67;14.18;;;4.90;99.90;;;;;;5008512;28;20125;-66
2023/01/03 01:32:18;;;;;;;24.90;15.57;;;4.90;99.90;;;;;;4989521;28;20041;-66
2023/01/03 01:34:44;;;;;;;27.20;15.15;;;4.90;99.90;;;;;;4989526;28;20109;-67
2023/01/03 01:37:10;;;;;;;25.60;14.60;;;4.90;99.90;;;;;;4995939;28;20109;-67
2023/01/03 01:39:36;;;;;;;25.05;14.65;;;5.00;99.90;;;;;;4997207;28;20041;-66
2023/01/03 01:44:54;;;;;;;22.95;15.32;;;4.90;99.90;;;;;;4987002;28;20049;-67
2023/01/03 01:47:29;;;;;;;24.85;15.43;;;4.80;99.90;;;;;;4992435;28;20397;-67
2023/01/03 01:50:00;;;;;;;25.08;16.13;;;4.90;99.90;;;;;;5003715;28;20019;-67
2023/01/03 01:52:27;;;;;;;26.08;15.40;;;4.90;99.90;;;;;;4997681;28;20406;-67
2023/01/03 01:54:54;;;;;;;23.58;15.25;;;4.90;99.90;;;;;;5002785;28;20018;-67
2023/01/03 01:57:22;;;;;;;23.52;14.88;;;4.90;99.90;;;;;;4990291;28;20034;-68
2023/01/03 01:59:49;;;;;;;28.33;15.77;;;5.00;99.90;;;;;;4995163;28;20062;-67
2023/01/03 02:02:19;;;;;;;25.50;15.95;;;5.10;99.90;;;;;;4992306;28;20111;-67
2023/01/03 02:04:48;;;;;;;26.20;15.93;;;5.20;99.90;;;;;;5002406;28;20420;-67
2023/01/03 02:07:17;;;;;;;27.05;15.00;;;5.20;99.90;;;;;;5004044;28;20383;-67
2023/01/03 02:09:44;;;;;;;26.30;15.48;;;5.20;99.90;;;;;;4978549;28;20076;-67
2023/01/03 02:15:26;;;;;;;27.88;16.20;;;5.30;99.90;;;;;;4993928;28;20036;-67
2023/01/03 02:18:13;;;;;;;26.35;16.02;;;5.30;99.90;;;;;;5005064;28;20029;-67
2023/01/03 02:20:57;;;;;;;25.08;15.43;;;5.30;99.90;;;;;;4994594;28;20050;-67
2023/01/03 02:23:34;;;;;;;21.63;13.43;;;5.30;99.90;;;;;;4997959;28;20026;-67
2023/01/03 02:26:27;;;;;;;20.40;14.25;;;5.40;99.90;;;;;;4975909;28;20573;-67
2023/01/03 02:29:05;;;;;;;20.58;10.70;;;5.50;99.90;;;;;;5022067;28;20129;-67
2023/01/03 02:32:00;;;;;;;16.75;6.13;;;6.20;99.90;;;;;;4994727;28;20583;-67
2023/01/03 02:34:47;;;;;;;15.13;3.88;;;6.80;99.90;;;;;;4985948;28;20066;-67
2023/01/03 02:37:39;;;;;;;16.80;2.78;;;7.40;99.90;;;;;;5001352;28;20044;-67
2023/01/03 02:40:27;;;;;;;17.40;3.00;;;7.80;99.90;;;;;;4983217;28;20046;-67
2023/01/03 02:43:04;;;;;;;14.40;2.85;;;8.20;99.90;;;;;;4988728;28;20073;-67
2023/01/03 02:46:02;;;;;;;12.32;2.20;;;8.40;99.90;;;;;;4987550;28;20037;-67
2023/01/03 02:48:56;;;;;;;13.25;3.00;;;8.60;99.90;;;;;;4985147;28;20050;-68
2023/01/03 02:51:38;;;;;;;11.20;1.50;;;8.70;99.90;;;;;;4994705;28;20038;-67
2023/01/03 02:54:06;;;;;;;;;;;8.80;99.90;;;;;;4986050;28;20030;-67
2023/01/03 02:56:42;;;;;;;10.88;1.70;;;8.80;99.90;;;;;;4977857;28;20420;-68
2023/01/03 02:59:13;;;;;;;10.95;1.77;;;8.80;99.90;;;;;;4995991;28;20026;-68
2023/01/03 03:01:43;;;;;;;17.80;2.72;;;8.80;99.90;;;;;;4996452;28;20042;-67
2023/01/03 03:04:12;;;;;;;8.55;1.90;;;8.80;99.90;;;;;;4991982;28;20037;-67
2023/01/03 03:06:56;;;;;;;17.33;3.22;;;8.90;99.90;;;;;;4995923;28;20123;-67
2023/01/03 03:09:23;;;;;;;13.13;2.38;;;8.80;99.90;;;;;;4995650;28;20088;-67
2023/01/03 03:14:44;;;;;;;13.52;3.42;;;8.80;99.90;;;;;;5002227;28;20076;-68
2023/01/03 03:17:18;;;;;;;13.90;1.65;;;8.80;99.90;;;;;;5009068;28;20026;-68
2023/01/03 03:25:49;;;;;;;12.07;1.92;;;8.90;99.90;;;;;;4997708;28;20036;-68
2023/01/03 03:28:35;;;;;;;8.98;2.30;;;8.90;99.90;;;;;;5000094;28;20065;-68
2023/01/03 03:31:05;;;;;;;14.40;2.33;;;8.90;99.90;;;;;;4992275;28;20033;-68
2023/01/03 03:33:34;;;;;;;12.48;2.42;;;9.00;99.90;;;;;;4980207;28;20058;-68
2023/01/03 03:36:21;;;;;;;14.50;1.90;;;9.00;99.90;;;;;;4994871;28;20029;-68
2023/01/03 03:38:47;;;;;;;13.43;1.63;;;9.00;99.90;;;;;;4988378;28;20023;-68
2023/01/03 03:47:32;;;;;;;14.50;2.17;;;9.00;99.90;;;;;;4988801;28;20126;-67
2023/01/03 03:50:06;;;;;;;11.93;1.42;;;9.00;99.90;;;;;;5000077;28;20130;-67
2023/01/03 03:52:34;;;;;;;8.55;1.63;;;9.00;99.90;;;;;;4998897;28;20149;-67
2023/01/03 03:58:36;;;;;;;14.40;1.70;;;9.10;99.90;;;;;;4992916;28;20049;-67
2023/01/03 04:01:02;;;;;;;13.68;2.67;;;9.20;99.90;;;;;;4995111;28;20030;-67
2023/01/03 04:03:30;;;;;;;7.80;1.65;;;9.30;99.90;;;;;;4981744;28;20495;-67
2023/01/03 04:06:01;;;;;;;19.63;2.35;;;9.30;99.90;;;;;;4978225;28;20360;-67
2023/01/03 04:08:27;;;;;;;11.77;1.48;;;9.30;99.90;;;;;;4994724;28;20044;-67
2023/01/03 04:11:04;;;;;;;12.82;2.10;;;9.30;99.90;;;;;;4998114;28;20022;-67
2023/01/03 04:13:34;;;;;;;17.05;2.35;;;9.20;99.90;;;;;;4991925;28;20038;-67
2023/01/03 04:16:00;;;;;;;16.90;1.80;;;9.20;99.90;;;;;;4995544;28;20033;-67
2023/01/03 04:18:26;;;;;;;17.38;1.73;;;9.30;99.90;;;;;;4992331;28;20398;-67
2023/01/03 04:20:52;;;;;;;12.95;1.60;;;9.30;99.90;;;;;;4994787;28;20030;-67
2023/01/03 04:23:18;;;;;;;15.32;1.70;;;9.30;99.90;;;;;;4986785;28;20023;-67
2023/01/03 04:25:43;;;;;;;10.27;2.20;;;9.40;99.90;;;;;;4997021;28;20121;-67
2023/01/03 04:28:09;;;;;;;11.75;2.35;;;9.40;99.90;;;;;;4992016;28;20049;-67
2023/01/03 04:30:35;;;;;;;16.23;1.05;;;9.40;99.90;;;;;;4990099;28;20030;-67
2023/01/03 04:33:04;;;;;;;9.43;2.00;;;9.30;99.90;;;;;;5001442;28;20481;-67
2023/01/03 04:35:30;;;;;;;11.18;1.77;;;9.20;99.90;;;;;;4985479;28;20475;-67
2023/01/03 04:37:56;;;;;;;10.27;1.40;;;9.20;99.90;;;;;;4998676;28;20053;-67
2023/01/03 04:40:23;;;;;;;13.35;1.10;;;9.10;99.90;;;;;;4989875;28;20027;-67
2023/01/03 04:45:33;;;;;;;14.20;2.38;;;9.10;99.90;;;;;;5010115;28;20089;-72
2023/01/03 04:47:59;;;;;;;12.73;2.28;;;9.10;99.90;;;;;;5012172;28;20073;-72
2023/01/03 04:50:25;;;;;;;14.93;1.35;;;9.00;99.90;;;;;;5007614;28;20053;-72
2023/01/03 04:52:55;;;;;;;11.93;1.10;;;9.00;99.90;;;;;;5011463;28;20025;-72
2023/01/03 04:55:21;;;;;;;16.98;1.73;;;9.10;99.90;;;;;;5004937;28;20412;-73
2023/01/03 04:57:46;;;;;;;5.65;1.00;;;9.10;99.90;;;;;;5010893;28;20509;-72
2023/01/03 05:00:13;;;;;;;3.40;0.98;;;9.10;99.90;;;;;;5010030;28;20022;-72
2023/01/03 05:02:38;;;;;;;9.02;0.95;;;9.10;99.90;;;;;;5009348;28;20175;-72
2023/01/03 05:05:05;;;;;;;9.23;1.08;;;9.00;99.90;;;;;;5008171;28;20081;-72
2023/01/03 05:07:31;;;;;;;8.80;1.00;;;8.90;99.90;;;;;;5009542;28;20041;-71
2023/01/03 05:09:56;;;;;;;8.45;1.55;;;8.80;99.90;;;;;;5010465;28;20022;-73
2023/01/03 05:12:22;;;;;;;9.13;2.53;;;8.90;99.90;;;;;;5005797;28;20030;-72
2023/01/03 05:14:48;;;;;;;11.90;1.27;;;8.90;99.90;;;;;;5007455;28;20114;-72
2023/01/03 05:17:14;;;;;;;7.00;1.23;;;9.00;99.90;;;;;;5012521;28;20053;-73
2023/01/03 05:27:56;;;;;;;9.57;0.98;;;9.20;99.90;;;;;;5010347;28;20048;-73
2023/01/03 05:30:22;;;;;;;10.13;1.00;;;9.20;99.90;;;;;;5009194;28;20091;-73
2023/01/03 05:32:47;;;;;;;8.05;0.82;;;9.30;99.90;;;;;;5011223;28;20026;-71
2023/01/03 05:35:13;;;;;;;12.95;1.48;;;9.30;99.90;;;;;;5009327;28;20036;-73
2023/01/03 05:37:39;;;;;;;13.75;2.20;;;9.30;99.90;;;;;;5005840;28;20028;-73
2023/01/03 05:40:05;;;;;;;11.05;1.88;;;9.20;99.90;;;;;;5025218;28;20101;-72
2023/01/03 05:42:31;;;;;;;14.57;1.10;;;9.20;99.90;;;;;;5009114;28;20470;-72
2023/01/03 05:44:57;;;;;;;6.90;1.65;;;9.20;99.90;;;;;;5001575;28;20018;-72
2023/01/03 05:47:24;;;;;;;11.20;1.20;;;9.30;99.90;;;;;;5006832;28;20030;-73
2023/01/03 05:49:50;;;;;;;10.52;1.45;;;9.40;99.90;;;;;;5010911;28;20053;-73
2023/01/03 05:52:16;;;;;;;15.80;1.23;;;9.40;99.90;;;;;;5011249;28;20075;-73
2023/01/03 05:54:41;;;;;;;8.07;1.23;;;9.40;99.90;;;;;;5008311;28;20767;-73
2023/01/03 05:57:07;;;;;;;12.73;1.38;;;9.40;99.90;;;;;;5009904;28;20497;-73
2023/01/03 05:59:33;;;;;;;8.80;2.58;;;9.40;99.90;;;;;;4998634;28;20030;-73
2023/01/03 06:01:59;;;;;;;10.40;1.17;;;9.40;99.90;;;;;;5010214;28;20014;-73
2023/01/03 06:04:25;;;;;;;6.95;0.93;;;9.40;99.90;;;;;;5009403;28;20068;-73
2023/01/03 06:06:51;;;;;;;7.63;1.83;;;9.40;99.90;;;;;;5007911;28;20069;-73
2023/01/03 06:09:17;;;;;;;19.05;3.05;;;9.40;99.90;;;;;;5006682;28;20493;-72
2023/01/03 06:11:43;;;;;;;8.60;1.10;;;9.40;99.90;;;;;;5008115;28;20100;-73
2023/01/03 06:14:09;;;;;;;10.40;1.00;;;9.40;99.90;;;;;;5003340;28;20025;-72
2023/01/03 06:19:19;;;;;;;16.73;1.13;;;9.40;99.90;;;;;;5008448;28;20386;-72
2023/01/03 06:21:45;;;;;;;10.30;1.30;;;9.40;99.90;;;;;;5009896;28;20022;-72
2023/01/03 06:24:11;;;;;;;8.82;2.13;;;9.50;99.90;;;;;;5009968;28;20102;-73
2023/01/03 06:26:37;;;;;;;13.15;1.55;;;9.40;99.90;;;;;;5007479;28;20451;-72
2023/01/03 06:29:04;;;;;;;11.80;1.67;;;9.40;99.90;;;;;;5010246;28;20026;-72
2023/01/03 06:31:29;;;;;;;11.55;2.38;;;9.40;99.90;;;;;;5008295;28;20026;-72
2023/01/03 06:33:55;;;;;;;15.82;1.13;;;9.30;99.90;;;;;;5009461;28;20375;-72
2023/01/03 06:36:22;;;;;;;7.25;0.70;;;9.30;99.90;;;;;;4999241;28;20181;-72
2023/01/03 06:38:48;;;;;;;8.63;1.02;;;9.20;99.90;;;;;;5000647;28;20100;-73
2023/01/03 06:41:15;;;;;;;9.70;1.45;;;9.20;99.90;;;;;;5009587;28;20026;-73
2023/01/03 06:43:41;;;;;;;10.05;0.82;;;9.20;99.90;;;;;;5003204;28;20103;-73
2023/01/03 06:54:33;;;;;;;11.82;1.38;;;9.20;99.90;;;;;;5008175;28;20029;-72
2023/01/03 06:56:59;;;;;;;12.43;1.45;;;9.20;99.90;;;;;;5004263;28;20386;-72
2023/01/03 06:59:25;;;;;;;8.18;1.30;;;9.20;99.90;;;;;;5005879;28;20042;-72
2023/01/03 07:01:52;;;;;;;14.25;1.63;;;9.20;99.90;;;;;;5005631;28;20481;-71
2023/01/03 07:04:19;;;;;;;11.27;1.52;;;9.20;99.90;;;;;;5004187;28;20040;-74
2023/01/03 07:06:45;;;;;;;16.10;1.10;;;9.20;99.90;;;;;;5001866;28;20018;-73
2023/01/03 07:09:11;;;;;;;12.77;2.20;;;9.10;99.90;;;;;;5004601;28;20620;-72
2023/01/03 07:11:38;;;;;;;14.65;1.50;;;9.00;99.90;;;;;;5004415;28;20065;-72
2023/01/03 07:14:05;;;;;;;12.35;2.47;;;9.10;99.90;;;;;;5005093;28;20025;-72
2023/01/03 07:16:39;;;;;;;13.98;2.63;;;9.10;99.90;;;;;;5000727;28;20122;-72
2023/01/03 07:19:07;;;;;;;14.77;1.95;;;9.20;99.90;;;;;;5007683;28;20113;-72
2023/01/03 07:21:34;;;;;;;13.27;1.23;;;9.30;99.90;;;;;;5003421;28;20022;-72
2023/01/03 07:24:01;;;;;;;10.90;1.65;;;9.30;99.90;;;;;;5009248;28;20022;-74
2023/01/03 07:26:29;;;;;;;20.08;2.97;;;9.30;99.90;;;;;;5005159;28;20056;-75
2023/01/03 07:28:57;;;;;;;11.82;1.92;;;9.30;99.90;;;;;;5008038;28;20049;-72
2023/01/03 07:31:23;;;;;;;11.25;3.45;;;9.40;99.90;;;;;;5004885;28;20030;-73
2023/01/03 07:33:49;;;;;;;10.77;1.20;;;9.40;99.90;;;;;;5009370;28;20437;-74
2023/01/03 07:36:16;;;;;;;11.50;1.40;;;9.40;99.90;;;;;;5005886;28;20223;-73
2023/01/03 07:38:44;;;;;;;15.27;1.65;;;9.40;99.90;;;;;;5000777;28;20453;-73
2023/01/03 07:41:11;;;;;;;12.18;1.67;;;9.50;99.90;;;;;;5004652;28;20026;-73
2023/01/03 07:43:44;;;;;;;13.80;1.50;;;9.40;99.90;;;;;;5005246;28;20594;-73
2023/01/03 07:46:14;;;;;;;18.83;3.20;;;9.40;99.90;;;;;;5001844;28;20027;-70
2023/01/03 07:48:41;;;;;;;14.73;2.33;;;9.40;99.90;;;;;;5000657;28;20049;-71
2023/01/03 07:51:08;;;;;;;15.85;2.08;;;9.50;99.90;;;;;;5003549;28;20053;-70
2023/01/03 07:53:35;;;;;;;13.70;2.10;;;9.40;99.90;;;;;;5003998;28;20038;-71
2023/01/03 07:56:12;;;;;;;16.60;2.33;;;9.50;99.90;;;;;;5009468;28;20383;-70
2023/01/03 07:58:39;;;;;;;10.98;1.73;;;9.50;99.90;;;;;;5001578;28;20474;-71
2023/01/03 08:01:14;;;;;;;11.55;1.83;;;9.40;99.90;;;;;;5007415;28;20477;-70
2023/01/03 08:03:40;;;;;;;15.48;2.42;;;9.30;99.90;;;;;;4999552;28;20029;-71
2023/01/03 08:06:09;;;;;;;15.13;2.70;;;9.30;99.90;;;;;;5006995;28;20030;-68
2023/01/03 08:08:35;;;;;;;18.45;2.97;;;9.30;99.90;;;;;;5006429;28;20041;-71
2023/01/03 08:13:46;;;;;;;21.50;3.05;;;9.30;99.90;;;;;;4999998;28;20049;-70
2023/01/03 08:16:14;;;;;;;13.77;2.28;;;9.30;99.90;;;;;;5006056;28;20116;-70
2023/01/03 08:18:41;;;;;;;19.20;3.47;;;9.30;99.90;;;;;;5008515;28;20022;-69
2023/01/03 08:21:09;;;;;;;12.43;2.55;;;9.30;99.90;;;;;;5008462;28;20026;-69
2023/01/03 08:23:35;;;;;;;13.80;2.38;;;9.40;99.90;;;;;;5008775;28;20026;-70
2023/01/03 08:26:21;;;;;;;14.52;2.17;;;9.40;99.90;;;;;;5008370;28;20370;-71
2023/01/03 08:28:46;;;;;;;16.98;2.53;;;9.40;99.90;;;;;;5003641;28;20048;-71
2023/01/03 08:31:19;;;;;;;15.32;2.72;;;9.50;99.90;;;;;;4996185;28;20102;-71
2023/01/03 08:33:59;;;;;;;13.85;2.60;;;9.50;99.90;;;;;;4997753;28;20342;-71
2023/01/03 08:36:27;;;;;;;16.05;2.63;;;9.60;99.90;;;;;;4998447;28;20053;-71
2023/01/03 08:39:04;;;;;;;22.15;2.90;;;9.70;99.90;;;;;;5011147;28;20030;-71
2023/01/03 08:41:33;;;;;;;19.55;2.65;;;9.70;99.90;;;;;;5009193;28;20026;-71
2023/01/03 08:44:01;;;;;;;15.57;1.70;;;9.80;99.90;;;;;;5007726;28;20117;-70
2023/01/03 08:46:29;;;;;;;14.27;1.98;;;9.80;99.90;;;;;;5008729;28;20037;-70
2023/01/03 08:48:56;;;;;;;10.00;1.95;;;9.80;99.90;;;;;;5013220;28;20035;-71
2023/01/03 08:51:25;;;;;;;22.05;2.47;;;9.80;99.90;;;;;;5003787;28;20034;-72
2023/01/03 08:53:51;;;;;;;17.20;3.15;;;9.90;99.90;;;;;;5006563;28;20827;-71
2023/01/03 08:56:20;;;;;;;17.02;2.67;;;10.00;99.90;;;;;;5006865;28;20034;-72
2023/01/03 08:58:45;;;;;;;19.10;2.55;;;10.00;99.90;;;;;;4999504;28;20034;-71
2023/01/03 09:01:12;;;;;;;18.45;2.85;;;10.00;99.90;;;;;;5005745;28;20033;-71
2023/01/03 09:03:37;;;;;;;19.85;3.22;;;10.10;99.90;;;;;;5003080;28;20026;-73
2023/01/03 09:06:04;;;;;;;17.48;2.35;;;10.10;99.90;;;;;;5008241;28;20378;-71
2023/01/03 09:08:31;;;;;;;17.08;2.42;;;10.20;99.90;;;;;;5007152;28;20465;-71
2023/01/03 09:10:57;;;;;;;11.45;2.13;;;10.30;99.90;;;;;;5005944;28;20033;-72
2023/01/03 09:13:23;;;;;;;17.90;2.38;;;10.20;99.90;;;;;;4997574;28;20650;-69
2023/01/03 09:15:50;;;;;;;16.10;2.80;;;10.30;99.90;;;;;;5005635;28;20101;-70
2023/01/03 09:18:16;;;;;;;20.02;2.22;;;10.30;99.90;;;;;;5009955;28;20026;-70
2023/01/03 09:20:42;;;;;;;11.65;1.85;;;10.30;99.90;;;;;;5008964;28;20060;-71
2023/01/03 09:23:07;;;;;;;14.75;1.58;;;10.30;99.90;;;;;;5003595;28;20026;-72
2023/01/03 09:25:33;;;;;;;15.38;1.60;;;10.30;99.90;;;;;;5008383;28;20038;-72
2023/01/03 09:27:59;;;;;;;12.13;1.90;;;10.30;99.90;;;;;;5007939;28;20044;-72
2023/01/03 09:30:25;;;;;;;12.98;1.98;;;10.30;99.90;;;;;;5007822;28;20030;-72
2023/01/03 09:32:51;;;;;;;14.82;2.15;;;10.30;99.90;;;;;;5003702;28;20028;-71
2023/01/03 09:35:19;;;;;;;18.40;2.70;;;10.30;99.90;;;;;;5008949;28;20370;-73
2023/01/03 09:37:48;;;;;;;14.30;1.77;;;10.30;99.90;;;;;;5006646;28;20026;-72
2023/01/03 09:40:15;;;;;;;21.55;2.65;;;10.40;99.90;;;;;;5009400;28;20040;-71
2023/01/03 09:45:31;;;;;;;16.63;1.75;;;10.50;99.90;;;;;;5005208;28;20501;-72
2023/01/03 09:47:58;;;;;;;;;;;10.60;99.90;;;;;;5004097;28;20044;-72
2023/01/03 09:50:27;;;;;;;16.10;2.30;;;10.60;99.90;;;;;;5007235;28;20391;-70
2023/01/03 10:04:26;;;;;;;10.77;1.63;;;10.60;99.90;;;;;;5002053;28;20045;-71
2023/01/03 10:07:11;;;;;;;22.60;2.63;;;10.60;99.90;;;;;;5010091;28;20095;-72
2023/01/03 10:10:02;;;;;;;16.67;3.50;;;10.60;99.90;;;;;;5015664;28;20027;-71
2023/01/03 10:12:52;;;;;;;22.00;1.97;;;10.60;99.90;;;;;;4985875;28;20513;-71
2023/01/03 10:15:36;;;;;;;17.23;2.20;;;10.60;99.90;;;;;;4960976;28;20031;-72
2023/01/03 10:19:00;;;;;;;23.63;2.90;;;10.60;99.90;;;;;;4963596;28;20039;-71
2023/01/03 10:21:56;;;;;;;15.77;2.53;;;10.60;99.90;;;;;;4881391;29;20500;-70
2023/01/03 10:24:29;;;;;;;18.70;2.70;;;10.50;99.90;;;;;;4902810;29;20099;-71
2023/01/03 10:27:07;;;;;;;16.77;1.80;;;10.60;99.90;;;;;;4908262;29;20048;-71
2023/01/03 10:29:33;;;;;;;19.77;2.70;;;10.60;99.90;;;;;;4900943;29;20044;-72
2023/01/03 10:32:09;;;;;;;24.15;3.75;;;10.60;99.90;;;;;;4910569;29;20028;-72
2023/01/03 10:34:37;;;;;;;15.05;2.95;;;10.60;99.90;;;;;;4905408;29;20036;-72
2023/01/03 10:37:18;;;;;;;14.32;3.10;;;10.60;99.90;;;;;;4905657;29;20052;-70
2023/01/03 10:39:44;;;;;;;21.75;2.63;;;10.70;99.90;;;;;;4898530;29;20392;-72
2023/01/03 10:42:17;;;;;;;16.02;3.75;;;10.80;99.90;;;;;;4909531;29;20059;-71
2023/01/03 10:44:58;;;;;;;25.40;3.75;;;10.80;99.90;;;;;;4892827;29;20032;-71
2023/01/03 10:47:25;;;;;;;19.67;2.83;;;10.90;99.90;;;;;;4906470;29;20036;-71
2023/01/03 10:50:00;;;;;;;20.05;3.05;;;11.00;99.90;;;;;;4910686;29;20115;-71
2023/01/03 10:52:40;;;;;;;13.98;2.05;;;11.00;99.90;;;;;;4908506;29;20060;-73
2023/01/03 10:55:17;;;;;;;14.70;2.42;;;11.00;99.90;;;;;;4911733;29;20582;-71
2023/01/03 10:58:02;;;;;;;8.38;1.58;;;11.10;99.90;;;;;;4993021;28;20135;-72
2023/01/03 11:00:36;;;;;;;13.18;2.38;;;11.20;99.90;;;;;;5004396;28;20504;-72
2023/01/03 11:03:13;;;;;;;12.18;2.22;;;11.10;99.90;;;;;;5008572;28;20160;-71
2023/01/03 11:05:41;;;;;;;14.30;2.00;;;11.20;99.90;;;;;;5001124;28;20030;-72
2023/01/03 11:08:14;;;;;;;12.68;1.90;;;11.10;99.90;;;;;;5003851;28;20125;-71
2023/01/03 11:10:56;;;;;;;19.50;2.90;;;11.10;99.90;;;;;;5001966;28;20493;-71
2023/01/03 11:13:26;;;;;;;22.27;3.78;;;11.00;99.90;;;;;;5002248;28;20040;-72
2023/01/03 11:15:56;;;;;;;18.88;2.92;;;11.00;99.90;;;;;;5006904;28;20021;-71
2023/01/03 11:18:22;;;;;;;17.75;2.33;;;10.90;99.90;;;;;;5006644;28;20038;-71
2023/01/03 11:21:22;;;;;;;13.13;2.38;;;10.90;99.90;;;;;;5007724;28;20390;-72
2023/01/03 11:24:00;;;;;;;17.48;3.28;;;10.90;99.90;;;;;;5007638;28;20045;-71
2023/01/03 11:26:31;;;;;;;14.10;2.17;;;10.80;99.90;;;;;;5003781;28;20034;-72
2023/01/03 11:29:24;;;;;;;15.65;2.92;;;10.80;99.90;;;;;;5010169;28;20449;-71
2023/01/03 11:32:27;;;;;;;15.90;3.05;;;10.80;99.90;;;;;;5012265;28;20358;-71
2023/01/03 11:35:29;;;;;;;18.23;2.70;;;10.80;99.90;;;;;;5012124;28;20041;-71
2023/01/03 11:38:12;;;;;;;18.08;1.80;;;10.70;99.90;;;;;;5005715;28;20521;-70
2023/01/03 11:41:04;;;;;;;25.40;2.58;;;10.80;99.90;;;;;;5004083;28;20030;-71
2023/01/03 11:43:50;;;;;;;23.08;3.13;;;10.70;99.90;;;;;;4998043;28;20048;-72
2023/01/03 11:46:19;;;;;;;15.45;1.85;;;10.70;99.90;;;;;;5011985;28;20088;-72
2023/01/03 11:48:51;;;;;;;20.45;3.00;;;10.70;99.90;;;;;;5006251;28;20448;-72
2023/01/03 11:51:29;;;;;;;17.58;2.17;;;10.70;99.90;;;;;;5010972;28;20068;-72
2023/01/03 11:54:21;;;;;;;15.57;2.72;;;10.70;99.90;;;;;;5011405;28;20030;-71
2023/01/03 11:56:49;;;;;;;16.85;2.30;;;10.70;99.90;;;;;;5008819;28;20088;-73
2023/01/03 11:59:33;;;;;;;16.15;2.15;;;10.70;99.90;;;;;;5010204;28;20065;-73
2023/01/03 12:02:04;;;;;;;15.32;1.95;;;10.60;99.90;;;;;;5011315;28;20076;-72
2023/01/03 12:05:05;;;;;;;16.63;2.70;;;10.60;99.90;;;;;;5010860;28;20032;-74
2023/01/03 12:07:45;;;;;;;18.15;2.75;;;10.50;99.90;;;;;;5007637;28;20034;-72
2023/01/03 12:10:14;;;;;;;19.02;3.53;;;10.60;99.90;;;;;;5012059;28;20229;-73
2023/01/03 12:12:55;;;;;;;28.80;4.57;;;10.50;99.90;;;;;;5006425;28;20030;-71
2023/01/03 12:15:32;;;;;;;19.20;2.45;;;10.60;99.90;;;;;;5009455;28;20064;-70
2023/01/03 12:18:39;;;;;;;28.38;5.40;;;10.60;99.90;;;;;;5005065;28;20026;-71
2023/01/03 12:21:41;;;;;;;13.98;3.42;;;10.60;99.90;;;;;;4968660;28;20043;-70
2023/01/03 12:24:10;;;;;;;;;;;10.60;99.90;;;;;;4970654;28;20133;-70
2023/01/03 12:26:40;;;;;;;22.23;2.88;;;10.60;99.90;;;;;;4967384;28;19914;-71
2023/01/03 12:29:18;;;;;;;15.10;3.38;;;10.60;99.90;;;;;;4962828;28;20035;-71
2023/01/03 12:31:49;;;;;;;17.02;2.58;;;10.50;99.90;;;;;;4967421;28;20042;-73
2023/01/03 12:34:29;;;;;;;23.38;4.38;;;10.50;99.90;;;;;;4969953;28;20045;-72
2023/01/03 12:37:10;;;;;;;15.57;1.95;;;10.50;99.90;;;;;;4969785;28;20026;-72
2023/01/03 12:39:55;;;;;;;10.23;2.30;;;10.40;99.90;;;;;;4961480;28;20562;-72
2023/01/03 12:42:23;;;;;;;19.58;2.78;;;10.40;99.90;;;;;;4965413;28;20345;-71
2023/01/03 12:45:09;;;;;;;13.57;2.92;;;10.40;99.90;;;;;;4965078;28;20035;-70
2023/01/03 12:48:08;;;;;;;23.42;2.33;;;10.40;99.90;;;;;;4943257;28;20051;-71
2023/01/03 12:50:44;;;;;;;24.15;3.95;;;10.30;99.90;;;;;;4966424;28;20098;-72
2023/01/03 12:53:12;;;;;;;30.13;3.30;;;10.20;99.90;;;;;;4961899;28;20043;-70
2023/01/03 12:56:01;;;;;;;16.25;3.20;;;10.20;99.90;;;;;;4965162;28;20034;-70
2023/01/03 12:58:50;;;;;;;30.27;3.88;;;10.20;99.90;;;;;;4994752;28;20042;-69
2023/01/03 13:01:39;;;;;;;26.25;4.00;;;10.20;99.90;;;;;;5004376;28;20041;-68
2023/01/03 13:04:16;;;;;;;16.35;2.78;;;10.20;99.90;;;;;;5004433;28;20049;-70
2023/01/03 13:07:00;;;;;;;19.17;2.13;;;10.20;99.90;;;;;;5005568;28;20025;-70
2023/01/03 13:09:30;;;;;;;23.85;2.53;;;10.20;99.90;;;;;;5006554;28;20398;-71
2023/01/03 13:12:07;;;;;;;14.20;1.95;;;10.20;99.90;;;;;;5006784;28;20033;-70
2023/01/03 13:14:54;;;;;;;18.60;3.17;;;10.20;99.90;;;;;;5008202;28;20030;-69
2023/01/03 13:17:26;;;;;;;18.77;2.78;;;10.30;99.90;;;;;;5005732;28;20034;-69
2023/01/03 13:19:58;;;;;;;17.08;3.13;;;10.30;99.90;;;;;;4996426;28;20033;-68
2023/01/03 13:22:48;;;;;;;22.05;3.00;;;10.30;99.90;;;;;;4994137;28;20039;-70
2023/01/03 13:25:25;;;;;;;17.98;2.95;;;10.30;99.90;;;;;;4993727;28;20018;-72
2023/01/03 13:27:54;;;;;;;22.92;2.97;;;10.30;99.90;;;;;;5008585;28;20042;-70
2023/01/03 13:30:26;;;;;;;23.42;4.05;;;10.30;99.90;;;;;;5006709;28;20056;-70
2023/01/03 13:33:10;;;;;;;26.50;3.80;;;10.40;99.90;;;;;;5006930;28;20389;-68
2023/01/03 13:35:51;;;;;;;18.35;2.63;;;10.40;99.90;;;;;;5006019;28;20026;-69
2023/01/03 13:38:29;;;;;;;20.73;7.75;;;10.40;99.90;;;;;;5010348;28;20030;-70
2023/01/03 13:41:20;;;;;;;11.65;2.72;;;10.50;99.90;;;;;;5007818;28;20026;-69
2023/01/03 13:43:52;;;;;;;14.30;2.15;;;10.60;99.90;;;;;;5002955;28;20041;-68
2023/01/03 13:46:25;;;;;;;16.85;3.10;;;10.60;99.90;;;;;;5010247;28;20132;-69
2023/01/03 13:48:59;;;;;;;13.23;2.45;;;10.70;99.90;;;;;;5002918;28;20120;-70
2023/01/03 13:51:48;;;;;;;17.98;2.88;;;10.70;99.90;;;;;;5000567;28;20034;-69
2023/01/03 13:54:17;;;;;;;20.05;3.15;;;10.70;99.90;;;;;;5007351;28;20116;-69
2023/01/03 13:56:42;;;;;;;16.70;2.17;;;10.70;99.90;;;;;;5003784;28;20508;-70
2023/01/03 13:59:14;;;;;;;16.05;3.15;;;10.70;99.90;;;;;;5005918;28;20034;-70
2023/01/03 14:02:04;;;;;;;19.17;2.45;;;10.70;99.90;;;;;;5004230;28;20025;-70
2023/01/03 14:05:07;;;;;;;26.00;3.10;;;10.70;99.90;;;;;;4991718;28;20474;-71
2023/01/03 14:08:04;;;;;;;20.65;3.15;;;10.70;99.90;;;;;;5008278;28;20045;-69
2023/01/03 14:10:58;;;;;;;19.55;3.03;;;10.70;99.90;;;;;;5010547;28;20371;-69
2023/01/03 14:13:34;;;;;;;15.23;2.67;;;10.60;99.90;;;;;;5002613;28;20096;-70